Nasdaq 100

Alles was Sie über den wissen sollten: Vom aktuellen Kurs und Chart bis zur Kursentwicklung der Nasdaq 100 Werte

Nasdaq 100 Realtime

ISIN: US6311011026
Symbol: NDX | Börse:

Kurszeit: 22.01.54 11:26 Uhr

19663.61

Punkte

Zeithorizont:
102.3 Punkte
0.52
Tageshoch
19666.74
Tagestief
19469.35

Nasdaq 100 Chart

  • 1 T
  • 1 W
  • 1 M
  • 6 M
  • YTD
  • 1 J
  • 5 J
  • Max
Loading ...
Loading ...

Nasdaq 100 Tops

Nasdaq 100 Flops

Eine vollständige Übersicht aller Gewinner und Verlierer des Tages, des aktuellen Jahres und weiterer Zeiträume finden Sie auf unserer Seite Nasdaq 100 Tops und Flops.

Andere Indizes

Nasdaq 100: Die Situation an der Börse aktuell

Börse Aktuell

Nasdaq 100: News & Analysen



Podcast zu Nasdaq 100



Zur Podcast-Übersicht

Nasdaq 100: Ratgeber und Tipps



Nasdaq 100 Kurs

Kurs 19.663,61
Änderung in Punkten 102.3
Änderung in % 0.52
Datum / Zeit 14.06.24 | 22:29
Börse 2,00
Öffnungskurs 0,00
Vortag 19.561,31
T-Hoch 19.666,74
T-Tief 19.469,35
Jahreshoch 19.666,74
Jahrestief 16.172,13
Währung Punkte
Loading ...

Aktueller Nasdaq 100 Marktbericht

Nasdaq 100 Werte: Aktuelle Kurse der Einzelwerte

Loading ...
Nasdaq 100 Aktie Vortag Kurs Hoch Tief +/- % Zeit Analysen
PayPal 61,54 60,64 61,64 60,31 -0,90 -1,46 % 22:00
T-Mobile US 175,11 175,99 176,08 174,21 0,88 0,50 % 22:00
AstraZeneca ADR 79,53 79,59 79,72 79,17 0,06 0,08 % 22:00
Mondelez 66,10 65,85 66,15 65,51 -0,25 -0,38 % 22:00
Workday 207,08 209,48 210,88 207,11 2,40 1,16 % 22:00
Ansys 325,01 323,17 325,00 322,00 -1,84 -0,57 % 22:00
Amazon 183,83 183,66 183,72 182,23 -0,17 -0,09 % 22:00
Xcel Energy 54,34 53,77 53,96 53,40 -0,57 -1,05 % 22:00
AMD 159,90 159,63 161,34 157,61 -0,27 -0,17 % 22:00
Amgen 298,50 298,62 299,74 295,90 0,12 0,04 % 22:00
Applied Materials 237,55 237,03 238,26 233,62 -0,52 -0,22 % 22:00
Align 271,28 256,01 270,28 252,11 -15,27 -5,63 % 22:00
Autodesk 223,10 225,87 227,08 222,37 2,77 1,24 % 22:00
Cintas Corp. 691,96 695,69 696,18 685,03 3,73 0,54 % 22:00
Activision Blizzard
Baker Hughes 31,63 31,09 31,61 30,93 -0,54 -1,71 % 22:00
Biogen 233,84 231,69 233,71 230,26 -2,15 -0,92 % 22:00
ASML Holding NV-NY 1.052,71 1.027,90 1.031,00 1.016,60 -24,81 -2,36 % 22:00
Costco Wholesale 845,96 855,67 856,18 841,91 9,71 1,15 % 22:00
Seagen
Cisco Systems 45,52 45,68 45,71 44,97 0,16 0,35 % 22:00
Datadog 119,54 117,84 118,80 115,74 -1,70 -1,42 % 22:00
Dollar Tree 106,53 106,03 106,87 104,60 -0,50 -0,47 % 22:00
CoStar Group 75,20 73,93 75,36 73,77 -1,27 -1,69 % 22:00
Electronic Arts 135,87 135,98 136,25 135,09 0,11 0,08 % 22:00
Paccar 107,10 106,72 106,77 104,91 -0,38 -0,35 % 22:00
eBay 53,69 52,13 53,45 51,95 -1,56 -2,91 % 22:00
Ross Stores 145,65 145,93 146,63 145,62 0,28 0,19 % 22:00
Meta Platforms 504,10 504,16 507,15 500,75 0,06 0,01 % 22:00
Walgreens Boots Alliance 15,45 15,55 15,56 15,16 0,10 0,65 % 22:00
Gilead 63,56 65,06 65,62 62,71 1,50 2,36 % 22:00
Microchip Technology Inc. 92,81 91,35 92,51 90,62 -1,46 -1,57 % 22:00
Keurig Dr Pepper 34,06 34,04 34,26 33,92 -0,02 -0,06 % 22:00
Honeywell International 208,63 208,53 208,68 206,01 -0,10 -0,05 % 22:00
Alphabet 176,74 178,37 178,73 175,85 1,63 0,92 % 22:00
Palo Alto Networks 319,66 317,31 322,62 315,01 -2,35 -0,74 % 22:00
Alphabet A 175,16 176,79 177,06 174,15 1,63 0,93 % 22:00
IDEXX Laboratories 506,12 504,00 508,90 500,52 -2,12 -0,42 % 22:00
Intel 30,46 30,45 30,56 30,21 -0,01 -0,03 % 22:00
Moderna 145,23 140,03 145,74 138,17 -5,20 -3,58 % 22:00
Intuit 594,62 595,70 599,98 594,59 1,08 0,18 % 22:00
Dexcom 113,81 115,95 116,01 113,23 2,14 1,88 % 22:00
Intuitive Surgical 422,90 425,78 426,32 413,98 2,88 0,68 % 22:00
Enphase Energy 129,72 124,61 131,74 124,28 -5,11 -3,94 % 22:00
Lululemon Athletica 307,49 306,01 308,00 303,16 -1,48 -0,48 % 22:00
Lucid Group 2,54 2,52 2,54 2,49 -0,02 -0,79 % 22:00
Monster Beverage 48,72 48,03 48,81 47,67 -0,69 -1,42 % 22:00
Constellation Energy 219,93 214,90 218,87 210,96 -5,03 -2,29 % 22:00
Microsoft 441,58 442,57 443,14 436,72 0,99 0,22 % 22:00
Adobe 458,74 525,31 534,45 521,88 66,57 14,51 % 22:00
Micron Technology 143,14 141,36 142,49 139,65 -1,78 -1,24 % 22:00
O Reilly Automotive 995,78 1.007,31 1.007,42 988,86 11,53 1,16 % 22:00
Netflix 653,26 669,38 675,58 652,64 16,12 2,47 % 22:00
Paychex 122,67 121,99 122,85 121,46 -0,68 -0,55 % 22:00
NVIDIA 129,61 131,88 132,84 128,32 2,27 1,75 % 22:00
Regeneron Pharmaceuticals 1.026,55 1.036,52 1.042,66 1.017,96 9,97 0,97 % 22:00
NXP 275,47 268,85 272,41 266,27 -6,62 -2,40 % 22:00
Sirius XM 2,54 2,61 2,63 2,49 0,07 2,76 % 22:00
Booking Holdings 3.856,14 3.859,10 3.863,11 3.814,10 2,96 0,08 % 22:00
Verisk Analytic CL A 262,24 264,37 264,51 260,31 2,13 0,81 % 22:00
PepsiCo 163,33 163,81 164,39 162,53 0,48 0,29 % 22:00
Charter Communication – A 274,17 276,26 276,85 272,49 2,09 0,76 % 22:00
Qualcomm 217,81 215,33 218,05 213,65 -2,48 -1,14 % 22:00
KLA-Tencor Corp. 830,03 824,84 826,54 815,00 -5,19 -0,63 % 22:00
Starbucks 80,24 79,65 80,40 79,11 -0,59 -0,74 % 22:00
American Electric Power 87,90 88,00 88,07 87,02 0,10 0,11 % 22:00
Tesla 182,47 178,01 186,00 176,92 -4,46 -2,44 % 22:00
Exelon 35,41 35,54 35,55 35,07 0,13 0,37 % 22:00
Texas Instruments 196,28 193,90 195,63 193,07 -2,38 -1,21 % 22:00
Synopsys 586,54 590,21 590,63 584,89 3,67 0,63 % 22:00
Vertex Pharma 479,03 480,73 483,53 477,73 1,70 0,35 % 22:00
Diamondback Energy 190,35 185,97 190,00 185,69 -4,38 -2,30 % 22:00
Broadcom 1.678,99 1.735,04 1.747,24 1.682,10 56,05 3,34 % 22:00
Fortinet 60,23 60,78 60,89 60,13 0,55 0,91 % 22:00
Analog Devices 234,03 231,19 232,57 229,45 -2,84 -1,21 % 22:00
Cadence Design Systems 307,54 312,10 312,58 307,05 4,56 1,48 % 22:00
Automatic Data Processing 244,27 242,62 243,65 240,93 -1,65 -0,68 % 22:00
MercadoLibre 1.580,53 1.582,14 1.588,00 1.561,00 1,61 0,10 % 22:00
CSX 32,53 32,18 32,42 31,74 -0,35 -1,08 % 22:00
Crowdstrike Holdings 382,81 385,44 388,35 381,15 2,63 0,69 % 22:00
Cognizant Technology Solutions 64,61 64,26 64,82 63,92 -0,35 -0,54 % 22:00
Zoom Video Communications 57,94 57,74 58,16 57,33 -0,20 -0,35 % 22:00
Comcast 37,58 37,44 37,68 37,26 -0,14 -0,37 % 22:00
Pinduoduo 148,98 149,00 150,53 147,05 -2,07 -1,37 % 22:00
Warner Bros. Discovery 7,29 7,24 7,39 7,21 -0,05 -0,69 % 22:00
Copart 53,06 53,21 53,25 52,36 0,15 0,28 % 22:00
Fastenal 64,29 63,05 63,32 61,87 -1,24 -1,93 % 22:00
Marvell Technology 72,87 73,27 73,48 71,65 0,40 0,55 % 22:00
Fiserv 148,26 148,94 149,25 146,97 0,68 0,46 % 22:00
Airbnb 146,10 145,97 146,05 144,28 -0,13 -0,09 % 22:00
Illumina 109,22 108,66 110,22 107,61 -0,56 -0,51 % 22:00
Zscaler 181,05 184,22 186,00 182,16 3,17 1,75 % 22:00
JD.com ADR 29,40 28,77 28,98 28,64 -0,63 -2,14 % 22:00
Rivian 10,88 10,87 11,24 10,81 -0,24 -2,16 % 22:00
The Kraft Heinz 32,54 32,38 32,63 32,25 -0,16 -0,49 % 22:00
Atlassian 156,02 160,09 160,39 156,11 4,07 2,61 % 22:00
Lam Research 1.038,50 1.035,98 1.042,07 1.023,05 -2,52 -0,24 % 22:00
Old Dominion Freight Line 172,91 172,74 173,12 166,83 -0,17 -0,10 % 22:00
Marriott International 240,47 239,45 239,75 235,14 -1,02 -0,42 % 22:00
GLOBALFOUNDRIES 48,61 49,75 49,78 48,22 1,14 2,35 % 22:00
Apple 214,24 212,49 215,17 211,30 -1,75 -0,82 % 22:00

Der US-Index Nasdaq 100 umfasst die 100 größten US-Unternehmen, die im Börsensegment Nasdaq gelistet sind und nicht zur Finanzbranche gehören. Anders als an der Nasdaq insgesamt, die durch den Nasdaq Composite-Index abgebildet wird, finden sich in diesem Index also fast ausschließlich Technologieunternehmen. Fast, weil der Ausschluss von Unternehmen der Finanzbranche in diesem Index nicht ausschließt, das sich mancher „Ausreißer“ aus anderen Branchen in diesem Blue Chip-Index der Nasdaq wiederfindet, so z.B. die Fluglinie American Airlines oder der Nahrungsmittelkonzern Mondelez.

Das Besondere der Nasdaq ist, dass sie eine reine „Computerbörse“ ist, d.h. es gibt hier keinen Parketthandel wie an der New York Stock Exchange. Das garantiert einen schnelleren und oft auch zuverlässigeren Handel. Der Nasdaq 100 wird seit 1985 berechnet, die Nasdaq selbst wurde aber schon 1971 gegründet. Sie war damals die erste „Computer-Börse“, was sich auch in ihrem Namen wiederfindet: NASDAQ steht für National Association of Securities Dealers Automated Quotations. Noch bis in die Neunzigerjahre wurde diese Börse von vielen mit Misstrauen gesehen, weil man das Gefühl hatte, dass Computer, die die Kurse berechneten und den Handel abwickelten, leichter zu manipulieren seien als der Parketthandel der New York Stock Exchange. Diese Skepsis verschwand aber mit den Jahren, da die befürchteten Skandale ausblieben, die Systeme zuverlässig liefen und immer mehr große, beim Publikum beliebte Unternehmen an der Nasdaq notiert wurden.

Der Nasdaq 100 ist – genau wie der Dow Jones –  ein reiner Kursindex, das heißt, er berechnet sich ausschließlich aus den Kursveränderungen der in ihm enthaltenen Aktien. Anders als beim DAX heute werden Dividenden nicht in die Berechnung einbezogen. Einmal jährlich wird die Zusammensetzung des Nasdaq 100 vom Betreiber, der Nasdaq OMX Group, überprüft, die Gewichtung der einzelnen Aktien im Index erfährt viermal jährlich eine Überprüfung.